Time;durP1;ratioP1;P1;durP2;ratioP2;P2;SDS_P1;SDS_P2;PMS_P1;PMS_P2;Temp;Humidity;BMP_temperature;BMP_pressure;BME280_temperature;BME280_humidity;BME280_pressure;Samples;Min_cycle;Max_cycle;Signal;HPM_P1;HPM_P2
2022/01/11 00:01:27;;;;;;;5.70;3.07;;;;;;;1.20;100.00;96402.38;5097230;28;20445;-33
2022/01/11 00:03:54;;;;;;;6.60;2.50;;;;;;;1.22;100.00;96399.56;5097062;28;20578;-31
2022/01/11 00:06:30;;;;;;;4.70;2.80;;;;;;;1.21;100.00;96409.25;5097094;28;20530;-30
2022/01/11 00:09:06;;;;;;;7.20;3.40;;;;;;;1.19;100.00;96410.41;5096652;28;20521;-31
2022/01/11 00:11:35;;;;;;;5.67;3.70;;;;;;;1.25;100.00;96419.31;5097715;28;20454;-31
2022/01/11 00:14:02;;;;;;;6.20;2.70;;;;;;;1.22;100.00;96426.53;5097234;28;20452;-30
2022/01/11 00:16:31;;;;;;;8.07;3.80;;;;;;;1.24;100.00;96436.81;5097067;28;20491;-32
2022/01/11 00:19:05;;;;;;;8.53;2.97;;;;;;;1.25;100.00;96435.84;5096793;28;20446;-30
2022/01/11 00:21:33;;;;;;;6.23;4.00;;;;;;;1.02;100.00;96402.00;5096791;28;20435;-31
2022/01/11 00:26:45;;;;;;;8.53;3.50;;;;;;;1.18;100.00;96430.53;5096562;28;20415;-30
2022/01/11 00:29:12;;;;;;;8.73;4.33;;;;;;;1.17;100.00;96444.59;5096274;28;20893;-30
2022/01/11 00:31:43;;;;;;;4.90;3.57;;;;;;;1.15;100.00;96441.34;5096304;28;20447;-30
2022/01/11 00:34:11;;;;;;;8.80;4.17;;;;;;;1.12;100.00;96443.53;5096248;28;20438;-31
2022/01/11 00:36:42;;;;;;;5.93;3.60;;;;;;;1.15;100.00;96446.59;5096050;28;20569;-30
2022/01/11 00:39:10;;;;;;;10.10;4.33;;;;;;;1.09;100.00;96451.75;5096452;28;20455;-31
2022/01/11 00:41:39;;;;;;;6.27;3.50;;;;;;;1.07;100.00;96448.50;5096030;28;20447;-30
2022/01/11 00:44:06;;;;;;;6.33;3.30;;;;;;;1.07;100.00;96459.78;5096047;28;20443;-31
2022/01/11 00:46:34;;;;;;;7.20;4.27;;;;;;;1.05;100.00;96451.28;5095984;28;20447;-31
2022/01/11 00:49:03;;;;;;;10.20;5.10;;;;;;;1.04;100.00;96447.06;5095073;28;20439;-31
2022/01/11 00:51:31;;;;;;;7.63;4.53;;;;;;;0.97;100.00;96454.84;5096219;28;20446;-31
2022/01/11 00:53:58;;;;;;;9.60;4.10;;;;;;;0.95;100.00;96461.25;5095799;28;20950;-30
2022/01/11 00:56:25;;;;;;;4.73;2.93;;;;;;;0.93;100.00;96456.22;5095750;28;20886;-32
2022/01/11 00:58:53;;;;;;;4.20;3.30;;;;;;;0.91;100.00;96467.84;5095830;28;20446;-32
2022/01/11 01:01:21;;;;;;;4.13;3.57;;;;;;;0.84;100.00;96469.56;5095988;28;20447;-31
2022/01/11 01:03:48;;;;;;;3.43;2.80;;;;;;;0.89;100.00;96464.59;5095824;28;20795;-31
2022/01/11 01:06:17;;;;;;;5.00;2.87;;;;;;;0.91;100.00;96470.47;5095933;28;20439;-31
2022/01/11 01:08:45;;;;;;;6.17;4.10;;;;;;;0.87;100.00;96463.97;5095855;28;20854;-32
2022/01/11 01:11:12;;;;;;;6.30;4.23;;;;;;;0.85;100.00;96474.59;5095855;28;20450;-32
2022/01/11 01:13:39;;;;;;;4.73;3.50;;;;;;;0.91;100.00;96473.06;5095726;28;20451;-31
2022/01/11 01:16:08;;;;;;;14.13;7.30;;;;;;;0.93;100.00;96469.28;5095647;28;20490;-31
2022/01/11 01:18:36;;;;;;;16.30;7.87;;;;;;;0.98;100.00;96476.56;5095728;28;20457;-32
2022/01/11 01:21:04;;;;;;;21.90;11.97;;;;;;;0.98;100.00;96469.53;5095231;28;20522;-31
2022/01/11 01:23:33;;;;;;;13.73;7.40;;;;;;;1.04;100.00;96475.84;5095307;28;20976;-31
2022/01/11 01:26:02;;;;;;;13.60;9.00;;;;;;;0.97;100.00;96480.19;5095128;28;20443;-31
2022/01/11 01:28:29;;;;;;;34.20;14.20;;;;;;;0.98;100.00;96481.78;5095152;28;20443;-32
2022/01/11 01:31:00;;;;;;;16.30;9.97;;;;;;;1.02;100.00;96478.63;5095363;28;20601;-31
2022/01/11 01:33:28;;;;;;;13.97;6.93;;;;;;;1.07;100.00;96479.88;5095151;28;20453;-31
2022/01/11 01:36:01;;;;;;;12.00;5.90;;;;;;;1.09;100.00;96489.16;5095220;28;20534;-32
2022/01/11 01:38:30;;;;;;;10.27;5.87;;;;;;;1.11;100.00;96487.16;5095289;28;20427;-31
2022/01/11 01:41:07;;;;;;;8.90;6.27;;;;;;;1.12;100.00;96483.56;5095186;28;20439;-32
2022/01/11 01:43:34;;;;;;;7.67;5.63;;;;;;;1.11;100.00;96483.75;5094901;28;20434;-32
2022/01/11 01:46:01;;;;;;;8.97;5.87;;;;;;;1.10;100.00;96482.94;5094863;28;20944;-33
2022/01/11 01:48:29;;;;;;;17.90;9.80;;;;;;;1.07;100.00;96472.84;5094731;28;20443;-31
2022/01/11 01:50:57;;;;;;;27.17;11.27;;;;;;;1.09;100.00;96483.94;5095024;28;20447;-31
2022/01/11 01:53:25;;;;;;;10.83;5.43;;;;;;;1.07;100.00;96491.16;5094681;28;20446;-32
2022/01/11 01:55:53;;;;;;;35.90;12.57;;;;;;;1.09;100.00;96499.63;5094223;28;20487;-33
2022/01/11 01:58:22;;;;;;;28.23;11.63;;;;;;;1.09;100.00;96497.00;5094901;28;20789;-32
2022/01/11 02:00:55;;;;;;;39.37;13.90;;;;;;;1.08;100.00;96507.66;5094410;28;20447;-31
2022/01/11 02:03:26;;;;;;;35.57;12.47;;;;;;;1.13;100.00;96511.34;5094825;28;20789;-32
2022/01/11 02:05:55;;;;;;;26.23;10.03;;;;;;;1.15;100.00;96506.72;5094925;28;20420;-32
2022/01/11 02:08:23;;;;;;;11.10;4.80;;;;;;;1.14;100.00;96496.44;5094433;28;20439;-32
2022/01/11 02:10:51;;;;;;;4.50;2.43;;;;;;;1.06;100.00;96500.00;5094608;28;20450;-32
2022/01/11 02:13:19;;;;;;;1.33;1.23;;;;;;;0.95;100.00;96508.31;5094606;28;20443;-33
2022/01/11 02:15:47;;;;;;;2.20;2.00;;;;;;;0.95;100.00;96503.09;5094136;28;20485;-32
2022/01/11 02:18:18;;;;;;;3.10;1.60;;;;;;;0.90;100.00;96510.66;5094617;28;20512;-32
2022/01/11 02:20:49;;;;;;;5.53;2.00;;;;;;;0.89;100.00;96522.13;5094610;28;20422;-32
2022/01/11 02:23:18;;;;;;;1.97;1.43;;;;;;;0.87;100.00;96516.25;5094513;28;20563;-32
2022/01/11 02:25:45;;;;;;;1.70;1.30;;;;;;;0.86;100.00;96520.69;5094069;28;20449;-32
2022/01/11 02:28:15;;;;;;;3.40;1.90;;;;;;;0.83;100.00;96526.25;5094001;28;20945;-32
2022/01/11 02:30:42;;;;;;;1.53;1.30;;;;;;;0.80;100.00;96530.03;5094041;28;20439;-32
2022/01/11 02:33:19;;;;;;;2.57;1.97;;;;;;;0.75;100.00;96531.56;5093839;28;20447;-32
2022/01/11 02:35:51;;;;;;;2.77;1.90;;;;;;;0.64;100.00;96516.34;5095002;28;20467;-32
2022/01/11 02:38:18;;;;;;;2.10;1.87;;;;;;;0.72;100.00;96540.59;5094209;28;20821;-32
2022/01/11 02:40:46;;;;;;;4.70;1.63;;;;;;;0.65;100.00;96531.84;5093874;28;20447;-32
2022/01/11 02:43:13;;;;;;;3.87;1.97;;;;;;;0.63;100.00;96540.88;5094154;28;20789;-31
2022/01/11 02:45:41;;;;;;;2.33;1.57;;;;;;;0.54;100.00;96538.34;5094078;28;20443;-32
2022/01/11 02:48:09;;;;;;;4.40;3.10;;;;;;;0.38;100.00;96521.00;5094067;28;20450;-32
2022/01/11 02:50:36;;;;;;;2.87;2.47;;;;;;;0.54;100.00;96529.69;5093678;28;20443;-32
2022/01/11 02:53:05;;;;;;;2.40;2.20;;;;;;;0.53;100.00;96556.78;5094062;28;20454;-33
2022/01/11 02:55:37;;;;;;;2.40;1.87;;;;;;;0.53;100.00;96541.13;5094301;28;20446;-33
2022/01/11 02:58:04;;;;;;;1.73;1.33;;;;;;;0.49;100.00;96545.06;5093485;28;20470;-32
2022/01/11 03:00:31;;;;;;;7.83;2.97;;;;;;;0.53;100.00;96541.91;5093543;28;20795;-33
2022/01/11 03:03:09;;;;;;;2.47;2.27;;;;;;;0.58;100.00;96547.44;5093613;28;20446;-32
2022/01/11 03:05:37;;;;;;;3.53;2.00;;;;;;;0.60;100.00;96547.25;5093843;28;20796;-32
2022/01/11 03:08:06;;;;;;;3.40;2.20;;;;;;;0.63;100.00;96535.63;5094062;28;20443;-33
2022/01/11 03:10:33;;;;;;;1.43;1.33;;;;;;;0.65;100.00;96550.16;5093326;28;20439;-32
2022/01/11 03:13:01;;;;;;;3.07;1.80;;;;;;;0.60;100.00;96555.06;5093078;28;20462;-33
2022/01/11 03:15:28;;;;;;;2.10;1.47;;;;;;;0.57;100.00;96551.03;5093605;28;20539;-32
2022/01/11 03:17:55;;;;;;;3.73;2.10;;;;;;;0.60;100.00;96560.31;5093398;28;20454;-33
2022/01/11 03:20:23;;;;;;;1.70;1.60;;;;;;;0.58;100.00;96551.81;5093762;28;20443;-33
2022/01/11 03:22:50;;;;;;;4.70;1.70;;;;;;;0.53;100.00;96562.03;5093565;28;20439;-33
2022/01/11 03:25:20;;;;;;;2.90;1.80;;;;;;;0.50;100.00;96559.78;5093314;28;20442;-32
2022/01/11 03:27:47;;;;;;;2.50;1.77;;;;;;;0.45;100.00;96559.47;5093354;28;20447;-33
2022/01/11 03:30:14;;;;;;;3.60;1.43;;;;;;;0.42;100.00;96559.84;5093555;28;20439;-32
2022/01/11 03:32:41;;;;;;;1.73;1.60;;;;;;;0.44;100.00;96563.09;5093563;28;20451;-32
2022/01/11 03:35:11;;;;;;;2.20;1.60;;;;;;;0.38;100.00;96560.19;5093553;28;20443;-32
2022/01/11 03:37:39;;;;;;;2.37;1.70;;;;;;;0.30;100.00;96554.22;5093231;28;20491;-32
2022/01/11 03:40:10;;;;;;;3.10;2.27;;;;;;;0.17;100.00;96545.22;5093113;28;20447;-32
2022/01/11 03:42:38;;;;;;;1.80;1.70;;;;;;;0.36;100.00;96571.81;5093522;28;20423;-32
2022/01/11 03:45:08;;;;;;;4.63;2.77;;;;;;;0.39;100.00;96587.94;5093223;28;20443;-32
2022/01/11 03:47:37;;;;;;;3.10;2.27;;;;;;;0.40;100.00;96583.53;5093423;28;20447;-32
2022/01/11 03:50:04;;;;;;;2.37;2.17;;;;;;;0.32;100.00;96600.09;5093036;28;20443;-32
2022/01/11 03:52:32;;;;;;;2.20;2.00;;;;;;;0.32;100.00;96592.25;5093336;28;20450;-31
2022/01/11 03:55:06;;;;;;;4.93;3.33;;;;;;;0.23;100.00;96598.53;5093042;28;20449;-33
2022/01/11 03:57:34;;;;;;;4.67;3.53;;;;;;;0.18;100.00;96603.47;5092878;28;20491;-32
2022/01/11 04:00:10;;;;;;;3.40;2.87;;;;;;;0.14;100.00;96596.97;5093229;28;20450;-32
2022/01/11 04:02:37;;;;;;;3.90;2.93;;;;;;;0.11;100.00;96592.91;5093293;28;20453;-32
2022/01/11 04:05:06;;;;;;;3.17;2.27;;;;;;;0.12;100.00;96604.16;5093051;28;20529;-32
2022/01/11 04:07:33;;;;;;;4.30;2.57;;;;;;;-0.11;100.00;96584.09;5092906;28;21003;-33
2022/01/11 04:10:02;;;;;;;3.40;2.67;;;;;;;0.05;100.00;96611.06;5092906;28;20442;-32
2022/01/11 04:12:29;;;;;;;2.93;2.57;;;;;;;0.08;100.00;96615.94;5092964;28;20482;-31
2022/01/11 04:14:56;;;;;;;3.63;2.93;;;;;;;0.03;100.00;96618.28;5093075;28;20954;-32
2022/01/11 04:17:28;;;;;;;6.90;3.03;;;;;;;-0.04;100.00;96631.22;5092735;28;20497;-32
2022/01/11 04:19:55;;;;;;;4.20;2.80;;;;;;;-0.05;100.00;96626.97;5092869;28;20880;-33
2022/01/11 04:22:23;;;;;;;5.57;3.20;;;;;;;-0.08;100.00;96643.78;5093081;28;20439;-32
2022/01/11 04:24:50;;;;;;;7.03;3.03;;;;;;;-0.10;100.00;96643.13;5095638;28;20435;-33
2022/01/11 04:27:17;;;;;;;3.23;2.90;;;;;;;-0.11;100.00;96644.09;5096361;28;20447;-33
2022/01/11 04:29:44;;;;;;;4.57;3.10;;;;;;;-0.13;100.00;96647.88;5097082;28;20445;-32
2022/01/11 04:32:12;;;;;;;6.37;4.77;;;;;;;-0.10;100.00;96648.34;5097066;28;20457;-32
2022/01/11 04:34:40;;;;;;;4.23;2.87;;;;;;;-0.11;100.00;96648.53;5096587;28;20446;-32
2022/01/11 04:37:08;;;;;;;4.63;3.17;;;;;;;-0.36;100.00;96624.38;5096054;28;20490;-33
2022/01/11 04:39:35;;;;;;;4.70;3.07;;;;;;;-0.18;100.00;96658.84;5096148;28;20541;-33
2022/01/11 04:42:02;;;;;;;13.80;7.57;;;;;;;-0.17;100.00;96664.88;5096396;28;20443;-32
2022/01/11 04:44:30;;;;;;;44.83;19.83;;;;;;;-0.22;100.00;96663.56;5096378;28;20451;-33
2022/01/11 04:46:57;;;;;;;21.27;9.53;;;;;;;-0.41;100.00;96648.34;5096048;28;20443;-33
2022/01/11 04:49:24;;;;;;;29.37;12.03;;;;;;;-0.20;100.00;96679.06;5095999;28;20443;-33
2022/01/11 04:51:54;;;;;;;21.53;9.90;;;;;;;-0.22;100.00;96688.88;5096207;28;20443;-32
2022/01/11 04:54:21;;;;;;;15.57;9.97;;;;;;;-0.36;100.00;96661.72;5095788;28;20500;-33
2022/01/11 04:56:49;;;;;;;13.67;6.33;;;;;;;-0.20;100.00;96684.28;5096139;28;20502;-33
2022/01/11 04:59:16;;;;;;;14.43;6.53;;;;;;;-0.25;100.00;96684.00;5096136;28;20439;-33
2022/01/11 05:01:43;;;;;;;18.23;8.50;;;;;;;-0.20;100.00;96692.13;5095724;28;20601;-33
2022/01/11 05:04:12;;;;;;;17.60;8.53;;;;;;;-0.17;100.00;96691.81;5096162;28;20478;-33
2022/01/11 05:06:40;;;;;;;28.37;13.03;;;;;;;-0.18;100.00;96684.94;5096626;28;20455;-33
2022/01/11 05:09:09;;;;;;;18.50;9.33;;;;;;;-0.17;100.00;96697.03;5095592;28;20445;-33
2022/01/11 05:11:36;;;;;;;16.50;10.43;;;;;;;-0.21;100.00;96700.94;5095807;28;20439;-33
2022/01/11 05:14:03;;;;;;;22.27;12.13;;;;;;;-0.22;100.00;96699.31;5095886;28;20497;-33
2022/01/11 05:16:30;;;;;;;32.27;16.23;;;;;;;-0.25;100.00;96695.25;5095377;28;20482;-32
2022/01/11 05:18:57;;;;;;;19.80;10.43;;;;;;;-0.24;100.00;96698.66;5095667;28;20517;-33
2022/01/11 05:21:25;;;;;;;12.37;8.30;;;;;;;-0.27;100.00;96705.03;5095342;28;20911;-32
2022/01/11 05:23:52;;;;;;;17.17;9.40;;;;;;;-0.30;100.00;96701.94;5095222;28;20446;-33
2022/01/11 05:26:21;;;;;;;13.97;7.83;;;;;;;-0.29;100.00;96708.81;5095675;28;20450;-33
2022/01/11 05:28:48;;;;;;;20.93;8.17;;;;;;;-0.37;100.00;96711.44;5095531;28;20443;-32
2022/01/11 05:31:16;;;;;;;16.10;9.60;;;;;;;-0.34;100.00;96722.38;5095215;28;20447;-33
2022/01/11 05:33:44;;;;;;;14.90;8.27;;;;;;;-0.31;100.00;96721.22;5095065;28;20447;-33
2022/01/11 05:36:11;;;;;;;7.20;5.23;;;;;;;-0.36;100.00;96732.16;5095068;28;20450;-34
2022/01/11 05:38:38;;;;;;;5.33;4.80;;;;;;;-0.36;100.00;96726.94;5095018;28;20938;-33
2022/01/11 05:41:06;;;;;;;4.87;3.20;;;;;;;-0.44;100.00;96726.97;5095228;28;20800;-32
2022/01/11 05:43:35;;;;;;;2.50;2.30;;;;;;;-0.57;100.00;96717.06;5095218;28;20443;-31
2022/01/11 05:46:03;;;;;;;7.20;3.40;;;;;;;-0.36;100.00;96741.78;5094990;28;20965;-32
2022/01/11 05:48:32;;;;;;;5.47;3.60;;;;;;;-0.39;100.00;96744.72;5095119;28;20816;-32
2022/01/11 05:50:59;;;;;;;5.10;2.90;;;;;;;-0.54;100.00;96732.34;5095131;28;20935;-32
2022/01/11 05:53:27;;;;;;;5.83;3.70;;;;;;;-0.53;100.00;96739.22;5094975;28;20439;-34
2022/01/11 05:55:54;;;;;;;7.30;3.90;;;;;;;-0.56;100.00;96744.78;5094519;28;20940;-33
2022/01/11 05:58:24;;;;;;;8.63;4.67;;;;;;;-0.55;100.00;96748.19;5094351;28;20977;-32
2022/01/11 06:00:52;;;;;;;17.00;9.87;;;;;;;-0.54;100.00;96745.41;5094861;28;20447;-33
2022/01/11 06:03:20;;;;;;;15.90;9.13;;;;;;;-0.59;100.00;96754.72;5094490;28;20446;-32
2022/01/11 06:05:47;;;;;;;8.47;5.20;;;;;;;-0.65;100.00;96751.78;5094452;28;20453;-32
2022/01/11 06:08:16;;;;;;;10.67;7.03;;;;;;;-0.62;100.00;96766.31;5094491;28;20438;-33
2022/01/11 06:10:44;;;;;;;11.27;7.67;;;;;;;-0.66;100.00;96771.03;5093770;28;20965;-32
2022/01/11 06:13:11;;;;;;;8.90;5.00;;;;;;;-0.72;100.00;96766.47;5094339;28;20934;-32
2022/01/11 06:15:38;;;;;;;7.70;5.17;;;;;;;-0.72;100.00;96781.31;5094230;28;20439;-32
2022/01/11 06:18:07;;;;;;;14.17;8.10;;;;;;;-0.81;100.00;96782.31;5094186;28;20977;-32
2022/01/11 06:20:35;;;;;;;11.40;9.30;;;;;;;-0.86;100.00;96778.41;5094301;28;20442;-32
2022/01/11 06:23:02;;;;;;;11.43;5.60;;;;;;;-0.89;100.00;96776.09;5094563;28;20443;-32
2022/01/11 06:25:29;;;;;;;10.57;5.80;;;;;;;-0.90;100.00;96794.53;5094102;28;20446;-32
2022/01/11 06:27:56;;;;;;;13.60;7.70;;;;;;;-0.96;100.00;96796.00;5094011;28;20810;-33
2022/01/11 06:30:24;;;;;;;14.70;9.10;;;;;;;-0.94;100.00;96798.44;5094071;28;20440;-32
2022/01/11 06:32:51;;;;;;;7.67;5.70;;;;;;;-0.93;100.00;96795.66;5093849;28;20450;-31
2022/01/11 06:35:20;;;;;;;11.83;5.40;;;;;;;-1.20;100.00;96772.56;5093879;28;20442;-33
2022/01/11 06:37:48;;;;;;;10.00;4.57;;;;;;;-0.99;100.00;96806.75;5094084;28;20890;-33
2022/01/11 06:40:20;;;;;;;12.57;4.83;;;;;;;-0.98;100.00;96818.81;5093949;28;20451;-33
2022/01/11 06:42:50;;;;;;;44.73;18.23;;;;;;;-0.98;100.00;96812.78;5094355;28;20785;-33
2022/01/11 06:45:18;;;;;;;20.63;8.43;;;;;;;-1.18;100.00;96796.63;5093569;28;20431;-33
2022/01/11 06:47:45;;;;;;;21.37;8.60;;;;;;;-0.98;100.00;96834.44;5093170;28;20454;-33
2022/01/11 06:50:12;;;;;;;14.93;5.70;;;;;;;-0.94;100.00;96834.94;5093618;28;20443;-32
2022/01/11 06:52:41;;;;;;;129.07;46.60;;;;;;;-1.15;100.00;96817.19;5093543;28;20439;-32
2022/01/11 06:55:10;;;;;;;51.73;21.73;;;;;;;-0.96;100.00;96847.31;5093974;28;20512;-32
2022/01/11 06:57:37;;;;;;;23.53;12.27;;;;;;;-0.99;100.00;96838.03;5093283;28;20585;-32
2022/01/11 07:00:07;;;;;;;17.77;8.67;;;;;;;-0.97;100.00;96851.69;5093825;28;20518;-32
2022/01/11 07:02:34;;;;;;;16.83;8.07;;;;;;;-0.95;100.00;96854.16;5093437;28;20447;-32
2022/01/11 07:05:01;;;;;;;12.80;6.47;;;;;;;-0.96;100.00;96848.13;5093918;28;20439;-32
2022/01/11 07:07:28;;;;;;;7.10;5.80;;;;;;;-0.94;100.00;96856.59;5093360;28;20446;-33
2022/01/11 07:09:57;;;;;;;11.50;8.17;;;;;;;-0.96;100.00;96863.78;5093270;28;20477;-32
2022/01/11 07:12:25;;;;;;;19.77;10.83;;;;;;;-0.94;100.00;96855.81;5093462;28;20450;-33
2022/01/11 07:14:52;;;;;;;14.40;9.00;;;;;;;-0.91;100.00;96865.88;5093372;28;20439;-32
2022/01/11 07:17:21;;;;;;;10.93;6.23;;;;;;;-0.91;100.00;96861.47;5093408;28;20865;-32
2022/01/11 07:19:48;;;;;;;7.87;5.10;;;;;;;-0.87;100.00;96870.59;5094124;28;20800;-33
2022/01/11 07:22:15;;;;;;;6.43;4.60;;;;;;;-0.84;100.00;96875.53;5093405;28;20480;-33
2022/01/11 07:24:42;;;;;;;8.63;4.27;;;;;;;-0.85;100.00;96871.25;5093367;28;20439;-32
2022/01/11 07:27:11;;;;;;;8.70;6.70;;;;;;;-0.85;100.00;96876.47;5093080;28;20481;-32
2022/01/11 07:29:38;;;;;;;10.77;6.73;;;;;;;-0.83;100.00;96884.16;5093591;28;20556;-32
2022/01/11 07:32:07;;;;;;;9.07;6.07;;;;;;;-0.89;100.00;96887.41;5093492;28;20447;-32
2022/01/11 07:34:35;;;;;;;14.07;7.70;;;;;;;-0.86;100.00;96910.53;5093181;28;20439;-32
2022/01/11 07:37:02;;;;;;;8.27;6.73;;;;;;;-0.84;100.00;96898.13;5093138;28;20472;-32
2022/01/11 07:39:29;;;;;;;16.20;7.53;;;;;;;-0.87;100.00;96903.69;5093459;28;20538;-33
2022/01/11 07:41:56;;;;;;;12.43;5.77;;;;;;;-0.84;100.00;96896.38;5093093;28;20934;-32
2022/01/11 07:44:25;;;;;;;7.97;5.20;;;;;;;-0.84;100.00;96901.59;5093423;28;20450;-33
2022/01/11 07:46:53;;;;;;;9.60;6.30;;;;;;;-0.83;100.00;96900.59;5093551;28;20871;-33
2022/01/11 07:49:21;;;;;;;12.77;9.57;;;;;;;-0.84;100.00;96901.59;5093482;28;20442;-32
2022/01/11 07:51:48;;;;;;;16.87;12.00;;;;;;;-0.89;100.00;96893.41;5093378;28;20953;-31
2022/01/11 07:54:15;;;;;;;18.90;11.60;;;;;;;-0.76;100.00;96905.16;5093013;28;20442;-32
2022/01/11 07:56:43;;;;;;;15.57;8.70;;;;;;;-0.78;100.00;96901.91;5093102;28;20478;-32
2022/01/11 07:59:11;;;;;;;19.53;8.70;;;;;;;-0.78;100.00;96896.69;5096632;28;20490;-31
2022/01/11 08:01:40;;;;;;;12.40;7.70;;;;;;;-0.74;100.00;96911.03;5096950;28;20442;-33
2022/01/11 08:04:08;;;;;;;15.73;7.57;;;;;;;-0.71;100.00;96913.31;5097085;28;20443;-32
2022/01/11 08:06:36;;;;;;;11.67;8.20;;;;;;;-0.75;100.00;96912.00;5096977;28;20581;-32
2022/01/11 08:09:04;;;;;;;16.23;7.53;;;;;;;-0.72;100.00;96916.91;5096689;28;20461;-33
2022/01/11 08:11:31;;;;;;;17.27;9.40;;;;;;;-0.78;100.00;96927.97;5096618;28;20941;-32
2022/01/11 08:13:58;;;;;;;7.40;5.50;;;;;;;-0.83;100.00;96923.25;5097058;28;20446;-32
2022/01/11 08:16:25;;;;;;;15.33;7.20;;;;;;;-0.90;100.00;96928.28;5096721;28;20434;-32
2022/01/11 08:18:54;;;;;;;21.40;12.87;;;;;;;-0.89;100.00;96932.53;5096418;28;20495;-33
2022/01/11 08:21:21;;;;;;;19.57;8.73;;;;;;;-0.88;100.00;96922.94;5096506;28;20450;-32
2022/01/11 08:23:48;;;;;;;18.40;11.90;;;;;;;-0.94;100.00;96924.38;5096647;28;20604;-32
2022/01/11 08:26:16;;;;;;;9.80;5.93;;;;;;;-0.95;100.00;96934.97;5096399;28;20952;-33
2022/01/11 08:28:44;;;;;;;20.47;11.57;;;;;;;-1.01;100.00;96933.81;5096405;28;20927;-32
2022/01/11 08:31:11;;;;;;;15.40;8.40;;;;;;;-1.03;100.00;96935.78;5096480;28;20447;-32
2022/01/11 08:33:39;;;;;;;11.07;7.77;;;;;;;-1.07;100.00;96947.50;5096571;28;20469;-32
2022/01/11 08:36:08;;;;;;;20.30;10.47;;;;;;;-1.04;100.00;96944.56;5096420;28;20945;-33
2022/01/11 08:38:36;;;;;;;16.27;7.20;;;;;;;-1.05;100.00;96954.16;5096468;28;20494;-32
2022/01/11 08:41:03;;;;;;;20.07;9.67;;;;;;;-1.12;100.00;96947.13;5096071;28;20439;-34
2022/01/11 08:43:31;;;;;;;25.50;13.90;;;;;;;-1.12;100.00;96958.41;5096343;28;20451;-33
2022/01/11 08:45:58;;;;;;;15.60;8.97;;;;;;;-1.08;100.00;96943.22;5096334;28;20442;-32
2022/01/11 08:48:25;;;;;;;18.83;9.80;;;;;;;-1.06;100.00;96959.53;5095949;28;20439;-32
2022/01/11 08:50:53;;;;;;;18.13;8.70;;;;;;;-1.08;100.00;96951.06;5095817;28;20930;-32
2022/01/11 08:53:22;;;;;;;15.60;7.83;;;;;;;-1.03;100.00;96959.22;5096346;28;20796;-32
2022/01/11 08:55:51;;;;;;;27.83;13.13;;;;;;;-1.01;100.00;96954.69;5095574;28;20449;-33
2022/01/11 08:58:19;;;;;;;39.83;18.67;;;;;;;-1.04;100.00;96966.22;5093458;28;20491;-34
2022/01/11 09:00:46;;;;;;;25.27;12.77;;;;;;;-1.09;100.00;96965.06;5093932;28;20578;-32
2022/01/11 09:03:14;;;;;;;18.93;11.20;;;;;;;-1.11;100.00;96969.63;5094691;28;20508;-31
2022/01/11 09:05:41;;;;;;;43.80;17.67;;;;;;;-1.19;100.00;96977.41;5095527;28;20439;-33
2022/01/11 09:08:09;;;;;;;29.30;14.10;;;;;;;-1.26;100.00;96983.25;5095719;28;20450;-33
2022/01/11 09:10:38;;;;;;;26.00;16.00;;;;;;;-1.17;100.00;96975.47;5094791;28;20435;-32
2022/01/11 09:13:05;;;;;;;29.13;12.63;;;;;;;-1.19;100.00;96977.41;5095510;28;20442;-33
2022/01/11 09:15:33;;;;;;;16.73;9.20;;;;;;;-1.26;100.00;96977.22;5095771;28;20452;-32
2022/01/11 09:18:01;;;;;;;20.20;12.27;;;;;;;-1.43;100.00;96975.53;5095305;28;20821;-33
2022/01/11 09:20:28;;;;;;;24.37;16.60;;;;;;;-1.38;100.00;96984.50;5095755;28;20850;-33
2022/01/11 09:22:55;;;;;;;45.57;24.37;;;;;;;-1.31;100.00;96985.53;5095628;28;20443;-33
2022/01/11 09:25:23;;;;;;;25.67;12.20;;;;;;;-1.42;100.00;96985.78;5095695;28;20443;-33
2022/01/11 09:27:52;;;;;;;21.13;11.77;;;;;;;-1.48;100.00;96983.81;5095424;28;20445;-33
2022/01/11 09:30:19;;;;;;;15.20;10.37;;;;;;;-1.47;100.00;96982.84;5095012;28;20439;-33
2022/01/11 09:32:46;;;;;;;23.97;13.10;;;;;;;-1.53;100.00;96986.88;5095471;28;20443;-31
2022/01/11 09:35:15;;;;;;;20.87;11.40;;;;;;;-1.50;100.00;96994.38;5095336;28;20443;-32
2022/01/11 09:37:44;;;;;;;23.57;14.40;;;;;;;-1.53;100.00;96988.66;5095286;28;20490;-32
2022/01/11 09:40:12;;;;;;;21.80;11.43;;;;;;;-1.48;100.00;96989.03;5094980;28;20447;-32
2022/01/11 09:42:40;;;;;;;23.57;14.77;;;;;;;-1.70;100.00;96975.56;5095203;28;20447;-34
2022/01/11 09:45:11;;;;;;;30.03;14.50;;;;;;;-1.58;100.00;96998.72;5095144;28;20446;-34
2022/01/11 09:47:40;;;;;;;22.50;13.17;;;;;;;-1.56;100.00;96997.59;5095221;28;20427;-33
2022/01/11 09:50:09;;;;;;;26.87;13.10;;;;;;;-1.59;100.00;96990.13;5094675;28;20918;-32
2022/01/11 09:52:37;;;;;;;35.43;15.20;;;;;;;-1.51;100.00;97010.16;5095254;28;20439;-33
2022/01/11 09:55:06;;;;;;;36.50;17.67;;;;;;;-1.57;100.00;96997.75;5094714;28;20456;-33
2022/01/11 09:57:33;;;;;;;29.00;12.97;;;;;;;-1.48;100.00;96992.44;5094517;28;20475;-34
2022/01/11 10:00:01;;;;;;;13.60;8.77;;;;;;;-1.48;100.00;96989.84;5094912;28;20462;-32
2022/01/11 10:02:29;;;;;;;13.37;7.33;;;;;;;-1.42;99.76;96998.78;5094866;28;20918;-32
2022/01/11 10:04:58;;;;;;;29.70;11.30;;;;;;;-1.49;99.34;97008.22;5094669;28;20773;-31
2022/01/11 10:07:30;;;;;;;18.50;11.87;;;;;;;-1.51;99.86;96997.13;5094493;28;20439;-32
2022/01/11 10:09:58;;;;;;;22.13;11.57;;;;;;;-1.55;99.71;97007.06;5094765;28;20466;-32
2022/01/11 10:12:26;;;;;;;15.40;8.80;;;;;;;-1.65;100.00;97001.94;5094321;28;20443;-32
2022/01/11 10:14:55;;;;;;;20.67;9.63;;;;;;;-1.51;100.00;97005.75;5094321;28;20451;-32
2022/01/11 10:17:25;;;;;;;13.27;8.33;;;;;;;-1.53;99.90;97022.50;5094698;28;20447;-31
2022/01/11 10:20:03;;;;;;;21.03;14.37;;;;;;;-1.58;99.98;97019.56;5094315;28;20486;-33
2022/01/11 10:22:31;;;;;;;25.67;13.73;;;;;;;-1.58;100.00;97025.59;5094579;28;20423;-33
2022/01/11 10:24:59;;;;;;;38.77;15.17;;;;;;;-1.57;100.00;97021.19;5094371;28;20443;-32
2022/01/11 10:27:30;;;;;;;41.17;15.10;;;;;;;-1.55;100.00;97019.25;5094197;28;20447;-32
2022/01/11 10:29:58;;;;;;;28.53;16.57;;;;;;;-1.49;99.40;97013.41;5094661;28;20466;-33
2022/01/11 10:32:30;;;;;;;16.33;8.93;;;;;;;-1.46;98.72;97015.72;5094007;28;20443;-32
2022/01/11 10:35:03;;;;;;;25.47;15.70;;;;;;;-1.41;98.90;97023.88;5093940;28;20466;-32
2022/01/11 10:37:36;;;;;;;20.93;11.20;;;;;;;-1.46;98.35;97013.13;5094109;28;20435;-32
2022/01/11 10:40:10;;;;;;;16.97;8.30;;;;;;;-1.42;97.36;97019.63;5094137;28;20840;-32
2022/01/11 10:42:41;;;;;;;17.10;9.10;;;;;;;-1.51;97.59;97017.97;5094446;28;20779;-32
2022/01/11 10:45:10;;;;;;;31.00;17.23;;;;;;;-1.50;98.58;97033.44;5093854;28;20436;-32
2022/01/11 10:47:40;;;;;;;16.00;8.83;;;;;;;-1.51;98.86;97020.56;5094074;28;20450;-32
2022/01/11 10:50:12;;;;;;;19.67;10.83;;;;;;;-1.44;99.01;97034.63;5093958;28;20884;-32
2022/01/11 10:52:40;;;;;;;40.03;19.80;;;;;;;-1.48;98.15;97028.09;5094160;28;20438;-32
2022/01/11 10:55:12;;;;;;;43.17;20.40;;;;;;;-1.47;98.03;97037.53;5093604;28;20445;-34
2022/01/11 10:57:41;;;;;;;38.23;16.23;;;;;;;-1.47;98.49;97029.72;5093581;28;20540;-32
2022/01/11 11:00:18;;;;;;;25.40;11.57;;;;;;;-1.53;97.74;97009.50;5093932;28;20543;-32
2022/01/11 11:02:50;;;;;;;28.30;13.23;;;;;;;-1.50;97.35;97033.44;5093898;28;20431;-32
2022/01/11 11:05:23;;;;;;;19.07;11.43;;;;;;;-1.50;97.51;97030.84;5093844;28;20428;-32
2022/01/11 11:07:56;;;;;;;22.20;12.97;;;;;;;-1.56;98.37;97030.66;5093928;28;20496;-31
2022/01/11 11:10:40;;;;;;;21.67;11.90;;;;;;;-1.59;98.31;97034.38;5093387;28;20794;-32
2022/01/11 11:13:09;;;;;;;10.60;7.87;;;;;;;-1.68;98.23;97027.47;5093777;28;20427;-32
2022/01/11 11:15:38;;;;;;;21.60;11.50;;;;;;;-1.65;98.90;97035.81;5093967;28;20521;-32
2022/01/11 11:18:08;;;;;;;18.27;11.00;;;;;;;-1.59;98.80;97034.38;5093280;28;20828;-32
2022/01/11 11:20:38;;;;;;;18.10;10.90;;;;;;;-1.51;98.92;97039.63;5093598;28;20439;-31
2022/01/11 11:23:06;;;;;;;56.17;22.60;;;;;;;-1.53;98.54;97038.13;5093316;28;20447;-32
2022/01/11 11:25:33;;;;;;;67.50;25.73;;;;;;;-1.60;98.44;97037.13;5093821;28;20475;-32
2022/01/11 11:28:01;;;;;;;82.77;24.57;;;;;;;-1.69;98.45;97034.47;5093480;28;20508;-32
2022/01/11 11:30:28;;;;;;;73.20;25.67;;;;;;;-1.67;97.73;97037.75;5093642;28;20917;-33